• Join FlightAware (Why Join?)
  • Login
  • US Flag 
10:43AM EDT


 

Airport Tracker/Info


-or-


 

Live Flight TrackerFlight Track Log ✈ VH-NCA ✈ 12-May-2013 ✈ YCNK / CES - YSBK / BWU

Flight Track Log - Related Links

Times and Time Zones

All times are in EDT time to prevent confusion due to time zone crossing. See the VH-NCA flight status page for this flight to view local times or setup timezone preferences in your user account.

Time Position Orientation Groundspeed Altitude Reporting Facility
EDT Latitude Longitude Course Direction KTS MPH feet Rate Location/Type
05:23AM -32.8091 151.3380 59° Northeast 77 89 1,200  Level Aus ATC (RADAR)
05:24AM -32.8024 151.3513 59° Northeast 75 86 1,600 600 Climbing Aus ATC (RADAR)
05:25AM -32.7861 151.3540 North 88 101 2,000 600 Climbing Aus ATC (RADAR)
05:25AM -32.7758 151.3600 26° Northeast 80 92 2,300 600 Climbing Aus ATC (RADAR)
05:26AM -32.7738 151.3431 278° West 97 112 2,700 600 Climbing Aus ATC (RADAR)
05:26AM -32.7894 151.3359 201° Southwest 98 113 3,000 480 Climbing Aus ATC (RADAR)
05:27AM -32.8108 151.3211 210° Southwest 94 108 3,500 480 Climbing Aus ATC (RADAR)
05:28AM -32.8197 151.3139 214° Southwest 98 113 3,700 480 Climbing Aus ATC (RADAR)
05:28AM -32.8355 151.3054 204° Southwest 101 116 4,000 600 Climbing Aus ATC (RADAR)
05:29AM -32.8507 151.2968 206° Southwest 92 106 4,500 600 Climbing Aus ATC (RADAR)
05:30AM -32.8655 151.2884 205° Southwest 92 106 4,800 480 Climbing Aus ATC (RADAR)
05:30AM -32.8780 151.2810 206° Southwest 94 108 5,100 540 Climbing Aus ATC (RADAR)
05:31AM -32.8916 151.2716 210° Southwest 95 109 5,400 480 Climbing Aus ATC (RADAR)
05:31AM -32.9064 151.2629 206° Southwest 101 116 5,700 360 Climbing Aus ATC (RADAR)
05:32AM -32.9342 151.2496 202° Southwest 114 131 6,000 240 Climbing Aus ATC (RADAR)
05:33AM -32.9454 151.2410 213° Southwest 122 140 6,100 60 Climbing Aus ATC (RADAR)
05:33AM -32.9650 151.2292 207° Southwest 132 152 6,100 -180 Level Aus ATC (RADAR)
05:34AM -32.9882 151.2149 207° Southwest 133 153 5,900 -120 Descending Aus ATC (RADAR)
05:35AM -33.0069 151.2018 210° Southwest 136 157 6,000 60 Climbing Aus ATC (RADAR)
05:35AM -33.0258 151.1891 209° Southwest 135 155 6,000  Level Aus ATC (RADAR)
05:36AM -33.0419 151.1781 210° Southwest 136 157 6,000  Level Aus ATC (RADAR)
05:36AM -33.0602 151.1647 212° Southwest 135 155 6,000  Level Aus ATC (RADAR)
05:37AM -33.0896 151.1444 210° Southwest 134 154 6,000  Level Aus ATC (RADAR)
05:38AM -33.1021 151.1357 210° Southwest 133 153 6,000  Level Aus ATC (RADAR)
05:38AM -33.1146 151.1286 206° Southwest 140 161 6,000  Level Aus ATC (RADAR)
05:38AM -33.1323 151.1145 214° Southwest 135 155 6,000  Level Aus ATC (RADAR)
05:39AM -33.1561 151.0953 214° Southwest 140 161 6,000  Level Aus ATC (RADAR)
05:40AM -33.1745 151.0814 212° Southwest 135 155 6,000  Level Aus ATC (RADAR)
05:40AM -33.1934 151.0679 211° Southwest 135 155 6,000  Level Aus ATC (RADAR)
05:41AM -33.2093 151.0556 213° Southwest 138 159 6,000  Level Aus ATC (RADAR)
05:41AM -33.2277 151.0421 212° Southwest 137 158 6,000 60 Level Aus ATC (RADAR)
05:42AM -33.2556 151.0221 211° Southwest 129 148 6,100 60 Climbing Aus ATC (RADAR)
05:43AM -33.2681 151.0126 212° Southwest 129 148 6,100  Level Aus ATC (RADAR)
05:43AM -33.2854 150.9995 212° Southwest 126 145 6,100  Level Aus ATC (RADAR)
05:44AM -33.3049 150.9846 213° Southwest 123 142 6,100  Level Aus ATC (RADAR)
05:44AM -33.3171 150.9744 215° Southwest 129 148 6,100  Level Aus ATC (RADAR)
05:45AM -33.3343 150.9620 211° Southwest 127 146 6,100  Level Aus ATC (RADAR)
05:46AM -33.3541 150.9477 211° Southwest 125 144 6,100  Level Aus ATC (RADAR)
05:46AM -33.3714 150.9344 213° Southwest 127 146 6,100  Level Aus ATC (RADAR)
05:47AM -33.3891 150.9214 211° Southwest 129 148 6,100  Level Aus ATC (RADAR)
05:48AM -33.4173 150.9017 210° Southwest 129 148 6,100  Level Aus ATC (RADAR)
05:48AM -33.4294 150.8927 212° Southwest 129 148 6,100  Level Aus ATC (RADAR)
05:49AM -33.4483 150.8804 208° Southwest 132 152 6,100  Level Aus ATC (RADAR)
05:50AM -33.4727 150.8691 201° Southwest 128 147 6,100  Level Aus ATC (RADAR)
05:50AM -33.4888 150.8572 212° Southwest 130 150 6,100  Level Aus ATC (RADAR)
05:51AM -33.5065 150.8434 213° Southwest 129 148 6,100  Level Aus ATC (RADAR)
05:51AM -33.5220 150.8317 212° Southwest 132 152 6,100  Level Aus ATC (RADAR)
05:52AM -33.5396 150.8180 213° Southwest 131 151 6,100  Level Aus ATC (RADAR)
05:53AM -33.5731 150.7927 212° Southwest 132 152 6,100  Level Aus ATC (RADAR)
05:53AM -33.5852 150.7833 213° Southwest 129 148 6,100  Level Aus ATC (RADAR)
05:54AM -33.6018 150.7717 210° Southwest 132 152 6,100 -360 Level Aus ATC (RADAR)
05:54AM -33.6305 150.7791 168° South 139 160 5,700 -480 Descending Aus ATC (RADAR)
05:55AM -33.6537 150.7824 173° South 142 163 5,500 -480 Descending Aus ATC (RADAR)
05:56AM -33.6763 150.7841 176° South 145 167 5,200 -600 Descending Aus ATC (RADAR)
05:56AM -33.6972 150.7880 171° South 142 163 4,900 -540 Descending Aus ATC (RADAR)
05:57AM -33.7197 150.7910 174° South 136 157 4,600 -540 Descending Aus ATC (RADAR)
05:58AM -33.7570 150.7956 174° South 137 158 4,100 -480 Descending Aus ATC (RADAR)
05:58AM -33.7702 150.7973 174° South 131 151 4,000 -420 Descending Aus ATC (RADAR)
05:58AM -33.7849 150.7987 175° South 124 143 3,800 -540 Descending Aus ATC (RADAR)
05:59AM -33.8052 150.8015 173° South 124 143 3,500 -660 Descending Aus ATC (RADAR)
06:00AM -33.8283 150.8071 169° South 125 144 3,000 -660 Descending Aus ATC (RADAR)
06:00AM -33.8408 150.8270 127° Southeast 123 142 2,700 -540 Descending Aus ATC (RADAR)
06:01AM -33.8547 150.8440 135° Southeast 117 135 2,400 -240 Descending Aus ATC (RADAR)
06:01AM -33.8647 150.8569 133° Southeast 104 120 2,500 -240 Climbing Aus ATC (RADAR)
06:02AM -33.8723 150.8772 114° Southeast 113 130 2,200 -720 Descending Aus ATC (RADAR)
06:03AM -33.8862 150.9109 116° Southeast 121 139 1,500 -780 Descending Aus ATC (RADAR)
06:03AM -33.8931 150.9261 119° Southeast 122 140 1,200 -840 Descending Aus ATC (RADAR)
06:04AM -33.9025 150.9453 120° Southeast 109 125 700 -660 Descending Aus ATC (RADAR)
06:05AM -33.9083 150.9616 113° Southeast 80 92 400 -420 Descending Aus ATC (RADAR)
06:05AM -33.9142 150.9734 121° Southeast 73 84 200 -360 Descending Aus ATC (RADAR)